Details From WMKK - Kuala Lumpur Intl - Sepang
To WBGG - Kuching Intl
Flight Number -
Tags decoded
Created
Modified
Stats Distance 530 nm / 982 km
Max Altitude 0 ft / 0 m
Waypoints 4
Social Downloads 2
Likes 0
Share VATSIM

Download

Looking for another format? Having issues loading an existing format? Contact us
Advertisement - Login to hide

Notes

Requested: WMKK ISTAN G584 VPK M761 VKG WBGG Unmatched points: G584 VPK M761

Route

WMKK ISTAN VKG WBGG

ID Type Via Altitude Latitude Longitude Leg Dist Tot Dist Heading (true) Name
O WMKK APT - 0 ft / 0 m 2.74558˚ 101.70991˚ - 0 nm - Kuala Lumpur Intl - Sepang
ISTAN FIX - 0 ft / 0 m 3.01444˚ 102.47944˚ 48 nm 48 nm 71° / 71° -
VKG VOR - 0 ft / 0 m 1.47333˚ 110.30575˚ 478 nm 527 nm 101° / 101° KUCHING VOR-DME
O WBGG APT - 0 ft / 0 m 1.48470˚ 110.34693˚ 2 nm 530 nm 75° / 75° Kuching Intl

Altitude Profile

Advertisement - Login to hide

Weather


0- 5 10 15 20 25 30 35+ Temperature / ° C

Clouds and Precipitation
Forecast for 2017-12-19 00:00 UTC. Updated 2 hours ago

Ground ~20,000 ft ~40,000 ft Winds

WMKK

Details ICAO WMKK (KUL)
Name Kuala Lumpur Intl - Sepang
Region Malaysia (Peninsular Malaysia)
Timezone Asia/Kuala_Lumpur (UTC+8.0)
Stats Elevation 70 ft / 21 m (AMSL)
Location 2.745578° 101.709913°
Runways 2
Magnetic Variation 0.000° E

METAR

WMKK 182300Z 01004KT 320V060 9999 FEW030 SCT140 BKN280 25/21 Q1010 NOSIG

Decode

TAF

Not found

Departure Runways

ID Width Length Bearing (true) Bearing (mag) Surface Threshold Offset Overrun Length
14L 197 ft / 60 m 13,577 ft / 4,138 m 146.13° 146.13° Asphalt 500 ft / 152 m 0 ft / 0 m
14R 197 ft / 60 m 13,337 ft / 4,065 m 146.22° 146.22° Asphalt 500 ft / 152 m 0 ft / 0 m
32L 197 ft / 60 m 13,337 ft / 4,065 m 326.22° 326.22° Asphalt 500 ft / 152 m 0 ft / 0 m
32R 197 ft / 60 m 13,577 ft / 4,138 m 326.13° 326.13° Asphalt 500 ft / 152 m 0 ft / 0 m

WBGG

Details ICAO WBGG (KCH)
Name Kuching Intl
Region Brunei and Malaysia
Timezone Asia/Kuching (UTC+8.0)
Stats Elevation 89 ft / 27 m (AMSL)
Location 1.484698° 110.346932°
Runways 1
Magnetic Variation 0.355° E

METAR

WBGG 182300Z VRB02KT 6000 -RA FEW001 BKN020 BKN150 25/24 Q1010 NOSIG

Decode

TAF

TAF WBGG 181100Z 1812/1912 33010KT 9999 SCT020 SCT150 BKN300 TEMPO 1812/1816 4000 RA SCT008 SCT018 BKN150 TEMPO 1816/1820 4000 RA SCT008 SCT016 BKN150 TEMPO 1820/1900 2000 TSRA SCT012 FEW015CB BKN150

Decode

Destination Runways

ID Width Length Bearing (true) Bearing (mag) Surface Threshold Offset Overrun Length
07 151 ft / 46 m 8,012 ft / 2,442 m 68.26° 67.91° Asphalt 0 ft / 0 m 0 ft / 0 m
25 151 ft / 46 m 8,012 ft / 2,442 m 248.26° 247.91° Asphalt 320 ft / 98 m 0 ft / 0 m

Approach Navaids

Runway Type Ident Frequency Range Bearing (true) Bearing (mag) Slope Elevation
25 Localiser IKG 110.30 MHz 18 nm / 33 km 248.23° 247.87° - 89 ft / 27 m (AMSL)
25 Glidescope IKG 110.30 MHz 10 nm / 19 km 248.26° 247.90° 3.00° 89 ft / 27 m (AMSL)
25 DME IKG 110.30 MHz 18 nm / 33 km - - - 89 ft / 27 m (AMSL)

Popular Alternatives